»·PEaware :: WAT175 KSAN-KTUS

WAT175 :: KSAN-KTUS

FLIGHT INFORMATION

Flight Status: Arrived
Operator:
Walker Air Transport
More flights by this operator :: More flights under this callsign
Pilot: Michael C. (27126)
Aircraft: BOEING 737-800
(B738)
More flights by this aircraft type
Origin: KSAN San Diego Intl-Lindbergh
United States
Destination: KTUS Tucson Intl
United States
More flights between these airports :: More routes between these airports
Route: ZZOOO2 IPL J2 GBN DINGO5
File this flight plan on PilotEdge
Remarks: RMK / SIMBRIEF
Altitude:
(Current/Filed)
37,000ft
Speed:
(Current/Filed)
461kts
Departed: 21-Aug-20 08:18 PM
Arrived: 21-Aug-20 09:12 PM
Distance/Time
Traveled:
319nm/0:54
Distance/Time
To Go:
Arrived

Flight Plot

Page will automatically refresh every two minutes.

Flight plan parsing failed; only flown route is shown


Map Options




Map Legend


Flown Route
Filed Route
Departure Airport
Arrival Airport
Navaid (VOR, NDB)
Fix

Horizontal Profiles

Position Reports

Time Latitude Longitude Heading Altitude Ground
Speed
21-Aug-20 19:48 32.733797 -117.202142 153 25ft 0kts
21-Aug-20 19:49 32.733797 -117.202142 153 25ft 0kts
21-Aug-20 19:50 32.733797 -117.202142 153 25ft 0kts
21-Aug-20 19:51 32.733797 -117.202142 153 25ft 0kts
21-Aug-20 19:52 32.733797 -117.202142 153 25ft 0kts
21-Aug-20 19:53 32.733797 -117.202142 153 25ft 0kts
21-Aug-20 19:54 32.733797 -117.202142 153 25ft 0kts
21-Aug-20 19:55 32.733797 -117.202142 153 25ft 0kts
21-Aug-20 19:56 32.733797 -117.202142 153 25ft 0kts
21-Aug-20 19:57 32.733797 -117.202142 153 25ft 0kts
21-Aug-20 19:58 32.733797 -117.202142 153 25ft 0kts
21-Aug-20 19:59 32.733797 -117.202142 153 25ft 0kts
21-Aug-20 20:00 32.733797 -117.202142 153 25ft 0kts
21-Aug-20 20:01 32.733797 -117.202142 153 25ft 0kts
21-Aug-20 20:02 32.733797 -117.202142 153 25ft 0kts
21-Aug-20 20:03 32.733797 -117.202142 153 25ft 0kts
21-Aug-20 20:04 32.733797 -117.202142 153 25ft 0kts
21-Aug-20 20:05 32.734068 -117.202302 153 25ft 0kts
21-Aug-20 20:06 32.734021 -117.202701 11 25ft 1kts
21-Aug-20 20:07 32.733989 -117.202709 13 25ft 0kts
21-Aug-20 20:08 32.733989 -117.202709 13 25ft 0kts
21-Aug-20 20:09 32.733989 -117.202709 13 25ft 0kts
21-Aug-20 20:10 32.733989 -117.202709 13 25ft 0kts
21-Aug-20 20:11 32.735320 -117.201304 104 25ft 15kts
21-Aug-20 20:12 32.733893 -117.195391 105 25ft 20kts
21-Aug-20 20:13 32.732763 -117.190734 105 25ft 18kts
21-Aug-20 20:14 32.731802 -117.186601 106 25ft 24kts
21-Aug-20 20:15 32.730086 -117.179577 106 25ft 25kts
21-Aug-20 20:16 32.729533 -117.176852 82 25ft 0kts
21-Aug-20 20:17 32.730750 -117.178314 283 25ft 60kts
21-Aug-20 20:18 32.744495 -117.233451 284 2115ft 194kts
21-Aug-20 20:19 32.695644 -117.320466 143 8080ft 266kts
21-Aug-20 20:20 32.640334 -117.239226 114 10950ft 316kts
21-Aug-20 20:21 32.623891 -117.134025 95 13826ft 336kts
21-Aug-20 20:22 32.616029 -117.020955 98 16473ft 352kts
21-Aug-20 20:23 32.605795 -116.902967 88 18773ft 373kts
21-Aug-20 20:24 32.628563 -116.779167 83 20935ft 390kts
21-Aug-20 20:25 32.642394 -116.648710 85 22888ft 404kts
21-Aug-20 20:26 32.655698 -116.513525 85 24668ft 417kts
21-Aug-20 20:27 32.669209 -116.374416 85 26261ft 430kts
21-Aug-20 20:28 32.682975 -116.230477 85 27625ft 444kts
21-Aug-20 20:29 32.697684 -116.082270 84 28935ft 455kts
21-Aug-20 20:30 32.714131 -115.931103 84 30212ft 464kts
21-Aug-20 20:31 32.730352 -115.778480 84 31777ft 462kts
21-Aug-20 20:32 32.742133 -115.648084 86 33094ft 458kts
21-Aug-20 20:33 32.753807 -115.520578 89 34540ft 447kts
21-Aug-20 20:34 32.758569 -115.373412 89 35802ft 443kts
21-Aug-20 20:35 32.761068 -115.227741 90 36649ft 447kts
21-Aug-20 20:36 32.764093 -115.093747 89 36819ft 464kts
21-Aug-20 20:37 32.767736 -114.949223 90 36816ft 468kts
21-Aug-20 20:38 32.769646 -114.793650 90 36822ft 469kts
21-Aug-20 20:39 32.770224 -114.638238 91 36826ft 468kts
21-Aug-20 20:40 32.770768 -114.482843 90 36826ft 468kts
21-Aug-20 20:41 32.772294 -114.327255 90 36826ft 468kts
21-Aug-20 20:42 32.774143 -114.171896 90 36826ft 468kts
21-Aug-20 20:44 32.775966 -114.016618 88 36825ft 469kts
21-Aug-20 20:45 32.792764 -113.862053 82 36826ft 470kts
21-Aug-20 20:46 32.814180 -113.707822 81 36829ft 470kts
21-Aug-20 20:47 32.835718 -113.554036 81 36847ft 470kts
21-Aug-20 20:48 32.857298 -113.400392 81 36853ft 470kts
21-Aug-20 20:49 32.878647 -113.247838 82 36853ft 470kts
21-Aug-20 20:50 32.900035 -113.093802 82 36853ft 470kts
21-Aug-20 20:51 32.919792 -112.937841 81 36946ft 480kts
21-Aug-20 20:52 32.939971 -112.782811 79 36941ft 449kts
21-Aug-20 20:53 32.935597 -112.640340 107 36857ft 437kts
21-Aug-20 20:54 32.892184 -112.502890 114 35620ft 440kts
21-Aug-20 20:55 32.843426 -112.374749 116 32946ft 417kts
21-Aug-20 20:56 32.800937 -112.267767 116 30739ft 428kts
21-Aug-20 20:57 32.750189 -112.138175 115 28478ft 425kts
21-Aug-20 20:58 32.702403 -112.012247 115 26204ft 411kts
21-Aug-20 20:58 32.663503 -111.909320 114 22825ft 407kts
21-Aug-20 21:00 32.609442 -111.772691 115 18829ft 368kts
21-Aug-20 21:01 32.565332 -111.666925 114 16909ft 344kts
21-Aug-20 21:02 32.513038 -111.571263 125 16927ft 343kts
21-Aug-20 21:03 32.476085 -111.467806 105 16881ft 339kts
21-Aug-20 21:03 32.454091 -111.380765 105 15436ft 307kts
21-Aug-20 21:05 32.406103 -111.281293 129 13251ft 313kts
21-Aug-20 21:05 32.357569 -111.214393 129 10292ft 328kts
21-Aug-20 21:06 32.295556 -111.135209 139 6966ft 324kts
21-Aug-20 21:08 32.224981 -111.064505 139 5975ft 231kts
21-Aug-20 21:08 32.190825 -111.025935 138 4903ft 192kts
21-Aug-20 21:09 32.154941 -110.984457 135 3477ft 180kts
21-Aug-20 21:10 32.120753 -110.944761 135 2612ft 164kts
21-Aug-20 21:11 32.107918 -110.929098 57 2598ft 8kts
21-Aug-20 21:12 32.110221 -110.929992 314 2598ft 17kts
21-Aug-20 21:13 32.114615 -110.935138 314 2598ft 26kts
21-Aug-20 21:14 32.118586 -110.937232 37 2598ft 5kts
21-Aug-20 21:15 32.118599 -110.937220 37 2598ft 0kts

Navigation Log

Ident Type
Flight plan parsing failed, navigation log unavailable